map of CUR home
Great Circle Mapper logo
CUR - Airport
Location
City:  Willemstad, Curaçao, Netherlands Antilles
Name:Aeropuerto Hato
ICAO / IATA:TNCC / CUR

Details
Type:Airport (Aerodrome, Airfield)
Use:Public/Civil, International (customs port of entry)
Latitude:12°11'20"N (12.188853)
Longitude:68°57'35"W (-68.959802)
Datum:WGS 1984
Elevation:29 ft (9 m)
Variation:11.06°W (WMM2015 magnetic declination)
-0.09° annual change
Runways:1
Longest:11188 × 197 ft (3410 × 60 m), paved

Time
Time Zone:UTC-4
Local Time:

Weather
METAR:TNCC 270300Z 09012KT 9999 FEW016 26/23 Q1013 NOSIG
TAF:TNCC 270400Z 2706/2806 10009KT 9999 SCT016= TAF TNCB 270400Z 2706/2806 05012KT 9999 SCT016

Related Locations
Nearby:
Farthest:JOG: 12125 mi / 19513 km
Yogyakarta [Adisucipto Intl (Jogja Airport)], ID

Find:

   beyond  
but within

Other Information
Maps:
NOTAMs:
Links:
Sources:

  
flag of Netherlands Antilles
flag of Curaçao
  

Sectional Chart

Flight Planning
at skyvector.com

Satellite Image

Google Maps Satellite View

 

Copyright © 2004-2015 Karl L. Swartz. All rights reserved.
The Great Circle Mapper name and logo are trademarks of the Great Circle Mapper.
All other trademarks mentioned herein belong to their respective owners.
Please see credits for attibutions and further copyright information.

  Follow gcmap on Facebook Follow gcmap on Twitter

hCard Microformat

Geo Microformat